Time;durP1;ratioP1;P1;durP2;ratioP2;P2;SDS_P1;SDS_P2;PMS_P1;PMS_P2;Temp;Humidity;BMP_temperature;BMP_pressure;BME280_temperature;BME280_humidity;BME280_pressure;Samples;Min_cycle;Max_cycle;Signal;HPM_P1;HPM_P2
2021/06/08 00:00:00;;;;;;;8.05;3.30;;;;;;;17.47;58.29;101375.97;4420931;32;20526;-70
2021/06/08 00:02:26;;;;;;;11.30;3.83;;;;;;;17.39;58.79;101366.09;4420770;32;20085;-70
2021/06/08 00:04:52;;;;;;;6.22;3.45;;;;;;;17.40;58.72;101370.53;4423790;32;20430;-70
2021/06/08 00:07:17;;;;;;;9.27;3.83;;;;;;;17.31;59.19;101367.66;4425303;32;20073;-70
2021/06/08 00:09:43;;;;;;;9.07;3.97;;;;;;;17.30;59.03;101368.13;4422789;32;20108;-70
2021/06/08 00:12:10;;;;;;;12.73;4.22;;;;;;;17.26;59.07;101373.97;4425048;32;20071;-69
2021/06/08 00:14:35;;;;;;;8.98;3.97;;;;;;;17.19;59.05;101374.28;4422188;32;20202;-69
2021/06/08 00:17:03;;;;;;;12.15;3.97;;;;;;;17.18;59.23;101367.00;4424539;32;20026;-70
2021/06/08 00:19:28;;;;;;;8.20;4.10;;;;;;;17.19;59.21;101376.31;4422563;32;20077;-70
2021/06/08 00:21:54;;;;;;;12.48;4.25;;;;;;;17.16;59.25;101366.69;4420892;32;21195;-69
2021/06/08 00:24:20;;;;;;;10.25;3.67;;;;;;;17.15;59.15;101370.78;4422658;32;20093;-70
2021/06/08 00:26:45;;;;;;;9.30;5.10;;;;;;;17.12;59.23;101374.56;4423896;32;20426;-70
2021/06/08 00:29:11;;;;;;;6.12;4.05;;;;;;;17.10;59.46;101374.25;4422025;32;20091;-69
2021/06/08 00:31:37;;;;;;;10.38;4.03;;;;;;;17.04;59.67;101381.81;4422728;32;20434;-70
2021/06/08 00:34:02;;;;;;;10.02;4.03;;;;;;;17.08;59.61;101375.97;4426263;32;20148;-70
2021/06/08 00:36:28;;;;;;;8.05;4.20;;;;;;;17.05;59.79;101374.84;4426572;32;20042;-70
2021/06/08 00:38:54;;;;;;;10.05;4.10;;;;;;;17.04;60.02;101378.97;4419099;32;20056;-70
2021/06/08 00:41:32;;;;;;;8.20;4.00;;;;;;;17.00;60.18;101371.84;4423294;32;20042;-70
2021/06/08 00:44:01;;;;;;;13.15;5.22;;;;;;;16.96;60.25;101374.81;4423481;32;20132;-71
2021/06/08 00:46:27;;;;;;;6.82;3.92;;;;;;;16.89;60.48;101380.78;4424523;32;20037;-72
2021/06/08 00:48:52;;;;;;;8.93;4.05;;;;;;;16.82;60.69;101375.38;4423644;32;20033;-70
2021/06/08 00:51:18;;;;;;;5.82;3.80;;;;;;;16.77;61.23;101381.66;4421971;32;20041;-69
2021/06/08 00:53:44;;;;;;;11.35;4.57;;;;;;;16.74;61.07;101385.44;4423386;32;20079;-71
2021/06/08 00:56:09;;;;;;;11.30;4.75;;;;;;;16.66;61.10;101375.59;4423413;32;20038;-71
2021/06/08 00:58:35;;;;;;;12.93;4.53;;;;;;;16.65;61.38;101376.06;4423501;32;20115;-71
2021/06/08 01:01:01;;;;;;;9.38;4.35;;;;;;;16.64;61.38;101383.00;4425395;32;20108;-70
2021/06/08 01:03:27;;;;;;;9.45;4.22;;;;;;;16.61;61.28;101378.25;4418909;32;20470;-72
2021/06/08 01:05:55;;;;;;;7.60;3.87;;;;;;;16.54;61.37;101387.06;4419583;32;20464;-70
2021/06/08 01:08:20;;;;;;;8.73;4.32;;;;;;;16.61;61.05;101387.59;4421428;32;20478;-71
2021/06/08 01:10:46;;;;;;;8.30;3.95;;;;;;;16.54;61.24;101378.53;4425680;32;20100;-70
2021/06/08 01:13:12;;;;;;;12.15;4.60;;;;;;;16.51;61.45;101388.00;4419164;32;20097;-70
2021/06/08 01:15:37;;;;;;;13.15;5.03;;;;;;;16.52;61.37;101375.34;4420235;32;20095;-70
2021/06/08 01:18:04;;;;;;;12.00;4.40;;;;;;;16.47;61.58;101379.59;4420265;32;20045;-71
2021/06/08 01:20:30;;;;;;;9.32;4.80;;;;;;;16.43;61.58;101387.47;4424547;32;20072;-70
2021/06/08 01:22:57;;;;;;;14.60;4.43;;;;;;;16.46;61.56;101391.41;4422003;32;20420;-71
2021/06/08 01:25:23;;;;;;;10.85;4.55;;;;;;;16.43;61.62;101384.62;4416900;32;20493;-72
2021/06/08 01:27:50;;;;;;;11.93;4.90;;;;;;;16.47;61.60;101382.44;4423451;32;20022;-72
2021/06/08 01:30:16;;;;;;;8.05;4.22;;;;;;;16.51;61.44;101385.91;4422284;32;20075;-71
2021/06/08 01:32:44;;;;;;;7.45;4.15;;;;;;;16.46;61.68;101389.37;4422510;32;20521;-72
2021/06/08 01:35:11;;;;;;;9.30;4.50;;;;;;;16.44;61.90;101382.59;4421863;32;20099;-71
2021/06/08 01:37:39;;;;;;;9.30;4.60;;;;;;;16.49;62.10;101387.66;4423926;32;20045;-72
2021/06/08 01:40:08;;;;;;;10.02;4.40;;;;;;;16.46;62.32;101397.91;4426911;32;20077;-71
2021/06/08 01:42:36;;;;;;;9.93;4.78;;;;;;;16.37;63.01;101394.97;4419417;32;20053;-71
2021/06/08 01:45:02;;;;;;;8.93;4.07;;;;;;;16.27;63.37;101389.69;4425831;32;20030;-71
2021/06/08 01:47:28;;;;;;;11.32;4.00;;;;;;;16.21;63.53;101394.38;4415029;32;20133;-70
2021/06/08 01:49:53;;;;;;;10.23;3.97;;;;;;;16.16;63.58;101395.75;4409493;32;20406;-70
2021/06/08 01:52:42;;;;;;;12.45;4.78;;;;;;;16.18;63.66;101400.97;4410203;32;20064;-69
2021/06/08 01:57:49;;;;;;;9.23;4.47;;;;;;;16.44;63.52;101403.25;3969326;32;15163785;-71
2021/06/08 02:00:29;;;;;;;9.07;4.72;;;;;;;16.44;63.52;101403.25;4426075;32;20073;-71
2021/06/08 02:03:19;;;;;;;10.23;4.32;;;;;;;16.06;63.53;101399.78;4410923;32;20431;-71
2021/06/08 02:05:57;;;;;;;12.60;4.30;;;;;;;15.94;64.39;101401.41;4404343;32;20117;-70
2021/06/08 02:08:50;;;;;;;10.43;4.75;;;;;;;15.96;64.62;101403.78;4408595;32;20076;-71
2021/06/08 02:11:22;;;;;;;10.10;4.22;;;;;;;15.89;65.04;101401.19;4410660;32;20358;-71
2021/06/08 02:16:46;;;;;;;9.30;4.47;;;;;;;16.10;65.10;101403.28;3951619;32;15726243;-71
2021/06/08 02:19:13;;;;;;;12.18;4.18;;;;;;;16.10;65.10;101403.28;4431465;32;20608;-70
2021/06/08 02:21:43;;;;;;;10.10;4.78;;;;;;;15.58;66.17;101408.75;4435898;32;20456;-71
2021/06/08 02:24:11;;;;;;;10.77;5.25;;;;;;;15.45;66.68;101403.13;4425079;32;20042;-71
2021/06/08 02:26:40;;;;;;;8.80;4.37;;;;;;;15.48;66.33;101409.91;4415352;32;20042;-71
2021/06/08 02:29:07;;;;;;;16.15;5.12;;;;;;;15.43;66.63;101414.13;4428269;32;20101;-69
2021/06/08 02:31:34;;;;;;;12.37;5.30;;;;;;;15.23;67.51;101412.75;4427618;32;20094;-71
2021/06/08 02:34:01;;;;;;;11.07;4.47;;;;;;;15.21;67.43;101407.53;4431503;32;20059;-71
2021/06/08 02:36:27;;;;;;;7.97;4.30;;;;;;;15.16;67.59;101405.25;4428277;32;20077;-71
2021/06/08 02:38:54;;;;;;;7.80;4.75;;;;;;;15.19;67.51;101412.09;4425704;32;20067;-70
2021/06/08 02:41:25;;;;;;;9.98;4.32;;;;;;;15.15;67.63;101412.19;4424501;32;20037;-70
2021/06/08 02:43:58;;;;;;;9.15;4.55;;;;;;;15.11;68.01;101408.69;4432315;32;20068;-71
2021/06/08 02:46:24;;;;;;;7.40;4.95;;;;;;;15.08;68.22;101401.09;4427827;32;20126;-70
2021/06/08 02:48:52;;;;;;;8.27;3.97;;;;;;;15.03;68.23;101400.88;4435803;32;20090;-70
2021/06/08 02:51:21;;;;;;;8.35;5.07;;;;;;;15.04;68.20;101413.78;4434848;32;20096;-69
2021/06/08 02:53:48;;;;;;;12.02;5.20;;;;;;;14.92;68.64;101408.88;4426198;32;20121;-69
2021/06/08 02:56:14;;;;;;;9.10;4.95;;;;;;;14.95;68.50;101403.13;4437351;32;20034;-69
2021/06/08 02:58:42;;;;;;;9.57;4.15;;;;;;;14.92;68.57;101408.88;4433950;32;20540;-69
2021/06/08 03:01:10;;;;;;;10.60;5.10;;;;;;;14.82;68.74;101405.12;4431983;32;20133;-70
2021/06/08 03:03:39;;;;;;;10.13;5.37;;;;;;;14.78;68.83;101409.31;4436867;32;20084;-69
2021/06/08 03:06:24;;;;;;;6.32;4.37;;;;;;;14.71;69.07;101401.03;4436094;32;20092;-69
2021/06/08 03:11:32;;;;;;;8.88;5.00;;;;;;;14.70;69.34;101410.81;3989185;32;15026148;-71
2021/06/08 03:13:59;;;;;;;13.07;5.22;;;;;;;14.66;69.42;101399.56;4441047;32;20073;-71
2021/06/08 03:16:29;;;;;;;10.13;5.03;;;;;;;14.62;69.52;101400.91;4437310;32;20042;-70
2021/06/08 03:19:00;;;;;;;15.50;5.78;;;;;;;14.52;70.01;101399.19;4431933;32;20400;-71
2021/06/08 03:21:31;;;;;;;12.10;5.20;;;;;;;14.51;70.11;101400.44;4430255;32;20425;-71
2021/06/08 03:24:01;;;;;;;10.50;5.40;;;;;;;14.42;70.42;101398.25;4438384;32;20025;-71
2021/06/08 03:26:29;;;;;;;9.98;5.20;;;;;;;14.41;70.51;101399.50;4441371;32;20068;-71
2021/06/08 03:28:59;;;;;;;6.62;4.53;;;;;;;14.36;70.77;101397.22;4435245;32;20485;-71
2021/06/08 03:31:26;;;;;;;8.32;5.07;;;;;;;14.36;70.71;101397.22;4439669;32;20064;-71
2021/06/08 03:33:55;;;;;;;9.57;4.95;;;;;;;14.34;70.96;101396.88;4439116;32;20030;-70
2021/06/08 03:36:22;;;;;;;8.05;4.97;;;;;;;14.30;71.05;101401.84;4438084;32;20049;-70
2021/06/08 03:38:51;;;;;;;12.37;4.85;;;;;;;14.33;70.65;101408.66;4434040;32;20049;-71
2021/06/08 03:41:17;;;;;;;10.35;5.28;;;;;;;14.40;70.23;101409.25;4424521;32;20034;-71
2021/06/08 03:43:44;;;;;;;8.38;4.70;;;;;;;14.41;70.03;101405.16;4435539;32;20127;-71
2021/06/08 03:46:10;;;;;;;10.60;4.70;;;;;;;14.50;69.78;101410.19;4439565;32;20414;-70
2021/06/08 03:48:35;;;;;;;11.07;4.68;;;;;;;14.47;69.88;101411.06;4438293;32;20134;-70
2021/06/08 03:51:02;;;;;;;12.48;5.47;;;;;;;14.53;69.85;101403.59;4437387;32;20057;-70
2021/06/08 03:53:28;;;;;;;11.12;4.75;;;;;;;14.50;69.85;101410.97;4437741;32;20033;-71
2021/06/08 03:55:53;;;;;;;10.15;5.55;;;;;;;14.47;70.00;101414.72;4438679;32;20109;-70
2021/06/08 03:58:21;;;;;;;15.63;5.85;;;;;;;14.49;69.84;101411.44;4437978;32;20065;-70
2021/06/08 04:00:50;;;;;;;11.27;5.68;;;;;;;14.41;70.11;101408.00;4432423;32;20109;-71
2021/06/08 04:03:18;;;;;;;11.60;5.70;;;;;;;14.29;70.31;101407.97;4423222;32;20037;-70
2021/06/08 04:05:46;;;;;;;12.43;6.47;;;;;;;14.37;70.04;101409.34;4424032;32;20045;-70
2021/06/08 04:08:11;;;;;;;10.43;5.75;;;;;;;14.29;70.20;101411.59;4417572;32;20116;-70
2021/06/08 04:10:40;;;;;;;10.07;5.03;;;;;;;14.29;69.72;101411.59;4421869;32;20042;-71
2021/06/08 04:13:06;;;;;;;8.40;4.70;;;;;;;14.39;69.59;101406.87;4410545;32;20038;-71
2021/06/08 04:15:33;;;;;;;10.38;4.90;;;;;;;14.48;69.19;101410.63;4423337;32;20108;-70
2021/06/08 04:17:59;;;;;;;12.27;5.32;;;;;;;14.48;69.17;101413.44;4411615;32;20093;-71
2021/06/08 04:20:26;;;;;;;11.15;5.37;;;;;;;14.43;69.45;101410.37;4419103;32;20058;-70
2021/06/08 04:22:56;;;;;;;9.80;6.43;;;;;;;14.46;69.55;101410.28;4412872;32;20029;-70
2021/06/08 04:25:23;;;;;;;12.77;6.43;;;;;;;14.59;69.04;101410.31;4413145;32;20084;-71
2021/06/08 04:27:49;;;;;;;10.55;6.15;;;;;;;14.61;68.55;101414.31;4403828;32;20066;-71
2021/06/08 04:30:16;;;;;;;8.60;5.50;;;;;;;14.66;68.31;101418.62;4405821;32;20038;-70
2021/06/08 04:32:42;;;;;;;9.75;5.47;;;;;;;14.60;68.38;101415.53;4413246;32;20046;-70
2021/06/08 04:35:08;;;;;;;15.05;5.80;;;;;;;14.70;68.21;101419.28;4406235;32;20083;-70
2021/06/08 04:37:35;;;;;;;13.70;5.87;;;;;;;14.79;68.03;101425.88;4406329;32;20108;-71
2021/06/08 04:40:02;;;;;;;13.18;5.40;;;;;;;14.86;67.95;101422.03;4412386;32;20557;-71
2021/06/08 04:42:28;;;;;;;11.43;5.60;;;;;;;15.02;67.29;101419.09;4407543;32;20468;-70
2021/06/08 04:44:54;;;;;;;13.23;5.68;;;;;;;15.01;67.25;101426.03;4413822;32;20041;-71
2021/06/08 04:47:21;;;;;;;11.23;5.90;;;;;;;15.04;67.34;101433.63;4411571;32;20456;-71
2021/06/08 04:49:48;;;;;;;10.30;6.07;;;;;;;15.07;66.82;101422.16;4409276;32;20502;-71
2021/06/08 04:52:14;;;;;;;11.70;6.78;;;;;;;15.17;66.79;101423.87;4397633;32;20121;-70
2021/06/08 04:54:41;;;;;;;20.70;7.20;;;;;;;15.32;66.22;101424.22;4407409;32;20037;-71
2021/06/08 04:57:10;;;;;;;12.48;7.43;;;;;;;15.28;66.44;101426.37;4406844;32;20070;-71
2021/06/08 05:02:17;;;;;;;10.87;6.97;;;;;;;15.58;65.61;101434.28;4000020;31;15015797;-71
2021/06/08 05:04:44;;;;;;;14.13;6.28;;;;;;;15.58;65.51;101434.28;4450671;32;20152;-71
2021/06/08 05:07:13;;;;;;;17.10;7.40;;;;;;;15.64;64.82;101440.97;4456074;32;20337;-71
2021/06/08 05:09:43;;;;;;;16.00;7.50;;;;;;;15.65;65.06;101439.75;4446211;32;20033;-70
2021/06/08 05:12:11;;;;;;;14.60;6.95;;;;;;;15.60;65.14;101432.59;4444550;32;20038;-71
2021/06/08 05:14:43;;;;;;;20.00;7.18;;;;;;;15.69;65.02;101432.72;4427420;32;20041;-70
2021/06/08 05:17:10;;;;;;;16.48;7.30;;;;;;;15.74;65.06;101432.12;4450034;32;20046;-71
2021/06/08 05:19:37;;;;;;;17.05;7.35;;;;;;;15.75;64.97;101441.44;4452926;32;20146;-70
2021/06/08 05:22:04;;;;;;;12.95;6.70;;;;;;;15.88;63.99;101434.47;4454177;32;20081;-71
2021/06/08 05:24:30;;;;;;;13.80;7.78;;;;;;;15.89;64.18;101430.37;4450305;32;20154;-71
2021/06/08 05:26:55;;;;;;;12.57;7.53;;;;;;;15.96;64.28;101435.78;4451874;32;20519;-71
2021/06/08 05:29:23;;;;;;;14.07;7.68;;;;;;;15.99;64.18;101431.25;4448201;32;20042;-70
2021/06/08 05:31:54;;;;;;;17.02;8.07;;;;;;;16.02;63.98;101440.91;4440177;32;20425;-70
2021/06/08 05:34:21;;;;;;;17.80;8.52;;;;;;;16.02;64.12;101435.22;4453712;32;20081;-70
2021/06/08 05:36:47;;;;;;;14.43;7.45;;;;;;;16.06;64.09;101436.69;4446051;32;20076;-70
2021/06/08 05:39:13;;;;;;;14.02;6.62;;;;;;;16.02;64.16;101432.38;4441367;32;20240;-70
2021/06/08 05:41:40;;;;;;;14.75;6.75;;;;;;;16.09;63.95;101432.94;4455319;32;20074;-70
2021/06/08 05:44:09;;;;;;;15.52;7.05;;;;;;;16.17;63.97;101430.63;4464956;32;20044;-70
2021/06/08 05:46:37;;;;;;;16.80;7.00;;;;;;;16.26;63.23;101431.47;4446078;32;20080;-70
2021/06/08 05:49:06;;;;;;;17.87;7.47;;;;;;;16.31;63.34;101430.09;4441436;32;20064;-70
2021/06/08 05:51:33;;;;;;;11.20;5.95;;;;;;;16.40;63.05;101430.16;4454558;32;20468;-70
2021/06/08 05:53:59;;;;;;;12.75;6.20;;;;;;;16.51;62.72;101434.22;4441211;32;20048;-70
2021/06/08 05:56:30;;;;;;;10.98;6.28;;;;;;;16.57;62.19;101426.69;4438714;32;20357;-70
2021/06/08 05:58:57;;;;;;;12.37;5.50;;;;;;;16.74;61.22;101436.59;4439252;32;20069;-70
2021/06/08 06:01:23;;;;;;;20.27;6.60;;;;;;;16.79;61.06;101443.75;4439143;32;20521;-70
2021/06/08 06:03:50;;;;;;;13.68;6.20;;;;;;;16.75;61.14;101443.09;4464822;32;20107;-70
2021/06/08 06:06:17;;;;;;;16.00;6.65;;;;;;;16.86;61.06;101438.56;4439234;32;20085;-70
2021/06/08 06:08:43;;;;;;;15.93;6.82;;;;;;;16.92;60.77;101436.72;4450867;32;20077;-71
2021/06/08 06:11:10;;;;;;;11.52;5.72;;;;;;;16.95;60.61;101435.78;4441112;32;20041;-70
2021/06/08 06:13:41;;;;;;;16.65;5.65;;;;;;;17.05;60.01;101445.94;4429018;32;20533;-70
2021/06/08 06:16:09;;;;;;;12.70;5.60;;;;;;;17.29;59.50;101437.66;4432440;32;20075;-70
2021/06/08 06:18:34;;;;;;;11.20;5.18;;;;;;;17.25;59.35;101449.19;4436257;32;20037;-70
2021/06/08 06:21:01;;;;;;;12.23;5.05;;;;;;;17.46;58.58;101442.66;4426763;32;20166;-70
2021/06/08 06:23:27;;;;;;;8.63;4.60;;;;;;;17.59;58.35;101445.41;4429330;32;20076;-70
2021/06/08 06:25:56;;;;;;;11.88;5.45;;;;;;;17.63;57.99;101452.53;4432731;32;20148;-70
2021/06/08 06:28:22;;;;;;;16.60;5.37;;;;;;;17.64;57.92;101445.56;4428325;32;20072;-70
2021/06/08 06:30:51;;;;;;;11.45;4.30;;;;;;;17.77;57.94;101457.63;4428240;32;20088;-69
2021/06/08 06:33:17;;;;;;;11.60;4.90;;;;;;;17.92;57.17;101452.91;4436524;32;20070;-69
2021/06/08 06:35:43;;;;;;;9.45;4.47;;;;;;;17.86;57.24;101445.47;4437146;32;20073;-69
2021/06/08 06:38:10;;;;;;;8.90;3.75;;;;;;;18.10;56.86;101454.97;4429505;32;20049;-70
2021/06/08 06:40:39;;;;;;;7.30;3.30;;;;;;;18.16;55.94;101455.94;4432487;32;20076;-70
2021/06/08 06:43:08;;;;;;;8.77;2.95;;;;;;;18.23;54.42;101447.09;4434869;32;20071;-70
2021/06/08 06:45:36;;;;;;;8.68;3.20;;;;;;;18.38;53.61;101442.34;4426879;32;20104;-70
2021/06/08 06:48:04;;;;;;;10.98;3.45;;;;;;;18.50;53.41;101447.09;4422431;32;20116;-70
2021/06/08 06:50:32;;;;;;;9.15;3.53;;;;;;;18.48;54.66;101440.31;4413975;32;20046;-70
2021/06/08 06:52:58;;;;;;;12.48;3.47;;;;;;;18.55;54.49;101443.63;4438871;32;20121;-71
2021/06/08 06:55:25;;;;;;;7.85;3.62;;;;;;;18.64;53.38;101448.50;4430091;32;20045;-70
2021/06/08 06:57:53;;;;;;;7.95;3.87;;;;;;;18.61;53.27;101453.13;4435240;32;20053;-70
2021/06/08 07:00:19;;;;;;;6.47;3.80;;;;;;;18.50;53.59;101446.31;4417208;32;20100;-70
2021/06/08 07:02:45;;;;;;;9.38;3.80;;;;;;;18.57;53.70;101446.00;4425872;32;20123;-70
2021/06/08 07:05:14;;;;;;;8.80;3.58;;;;;;;18.69;53.32;101448.69;4429687;32;20045;-70
2021/06/08 07:07:42;;;;;;;10.55;4.25;;;;;;;18.75;53.51;101452.44;4423515;32;20848;-70
2021/06/08 07:10:10;;;;;;;5.90;3.58;;;;;;;18.88;53.32;101447.37;4426760;32;20437;-70
2021/06/08 07:12:39;;;;;;;9.88;3.42;;;;;;;18.85;52.33;101444.69;4427711;32;20118;-71
2021/06/08 07:15:05;;;;;;;9.93;3.53;;;;;;;18.93;53.31;101452.41;4429964;32;20128;-70
2021/06/08 07:17:33;;;;;;;7.72;3.22;;;;;;;18.92;52.57;101444.34;4421595;32;20172;-70
2021/06/08 07:20:00;;;;;;;7.65;3.00;;;;;;;18.89;52.39;101439.59;4429317;32;20124;-70
2021/06/08 07:22:26;;;;;;;5.03;3.58;;;;;;;18.95;51.96;101432.78;4431136;32;20044;-70
2021/06/08 07:24:53;;;;;;;8.55;4.03;;;;;;;18.93;51.15;101440.25;4424459;32;20099;-71
2021/06/08 07:27:19;;;;;;;10.02;3.25;;;;;;;19.04;51.18;101440.50;4428815;32;20102;-73
2021/06/08 07:29:45;;;;;;;7.43;3.33;;;;;;;19.10;50.86;101438.59;4425648;32;20069;-73
2021/06/08 07:32:24;;;;;;;5.80;3.50;;;;;;;19.06;50.10;101438.78;4425698;32;20282;-74
2021/06/08 07:37:28;;;;;;;7.78;3.08;;;;;;;19.38;49.65;101443.75;3947125;32;15722475;-72
2021/06/08 07:42:45;;;;;;;8.02;3.45;;;;;;;19.24;50.11;101429.34;3975486;32;15024315;-73
2021/06/08 07:45:19;;;;;;;5.90;2.70;;;;;;;19.18;50.20;101431.28;4428616;32;20077;-75
2021/06/08 07:47:49;;;;;;;6.95;2.67;;;;;;;19.11;49.60;101432.41;4425058;32;20053;-72
2021/06/08 07:50:16;;;;;;;11.85;2.40;;;;;;;19.11;48.53;101432.41;4427806;32;20140;-71
2021/06/08 07:52:42;;;;;;;7.75;2.50;;;;;;;19.15;48.50;101440.78;4428593;32;20061;-71
2021/06/08 07:55:08;;;;;;;6.28;2.60;;;;;;;19.13;48.25;101438.41;4429237;32;20050;-71
2021/06/08 07:57:34;;;;;;;7.03;2.40;;;;;;;19.26;49.09;101441.88;4424225;32;20122;-71
2021/06/08 08:00:00;;;;;;;6.03;2.30;;;;;;;19.33;48.28;101435.81;4429860;32;20077;-71
2021/06/08 08:02:27;;;;;;;5.05;2.10;;;;;;;19.33;48.04;101438.69;4417618;32;20740;-71
2021/06/08 08:04:53;;;;;;;8.55;2.72;;;;;;;19.37;48.60;101450.72;4413194;32;20143;-70
2021/06/08 08:07:23;;;;;;;5.50;2.75;;;;;;;19.22;49.04;101444.09;4412022;32;20109;-70
2021/06/08 08:09:51;;;;;;;5.85;2.92;;;;;;;18.95;49.68;101446.22;4413132;32;20081;-71
2021/06/08 08:12:17;;;;;;;10.43;3.08;;;;;;;18.93;50.48;101448.78;4414313;32;20115;-70
2021/06/08 08:14:46;;;;;;;8.90;3.12;;;;;;;18.79;50.94;101440.87;4411356;32;20046;-70
2021/06/08 08:17:12;;;;;;;11.82;3.10;;;;;;;18.78;50.65;101430.75;4412115;32;20092;-71
2021/06/08 08:19:39;;;;;;;10.63;2.97;;;;;;;18.82;50.83;101423.63;4412329;32;20077;-72
2021/06/08 08:22:07;;;;;;;9.13;3.20;;;;;;;18.97;50.16;101433.09;4411320;32;20094;-72
2021/06/08 08:24:33;;;;;;;10.57;3.28;;;;;;;19.07;50.48;101437.50;4413468;32;20109;-72
2021/06/08 08:27:01;;;;;;;3.97;2.35;;;;;;;19.37;49.41;101429.94;4409503;32;20042;-71
2021/06/08 08:29:27;;;;;;;9.48;2.62;;;;;;;19.65;47.33;101417.91;4411350;32;20068;-70
2021/06/08 08:31:53;;;;;;;6.60;2.70;;;;;;;19.71;47.44;101423.72;4411073;32;20177;-72
2021/06/08 08:34:20;;;;;;;8.95;3.22;;;;;;;19.70;47.62;101422.94;4410622;32;20064;-71
2021/06/08 08:36:45;;;;;;;8.63;3.20;;;;;;;19.72;48.16;101425.31;4413068;32;20038;-70
2021/06/08 08:39:12;;;;;;;6.87;3.08;;;;;;;19.83;48.50;101424.75;4413648;32;20095;-71
2021/06/08 08:41:40;;;;;;;10.15;3.83;;;;;;;19.80;48.22;101423.69;4412062;32;20438;-70
2021/06/08 08:44:07;;;;;;;10.35;3.28;;;;;;;19.86;48.30;101415.22;4413499;32;20054;-70
2021/06/08 08:46:35;;;;;;;11.77;3.60;;;;;;;20.24;47.75;101415.25;4411484;32;20696;-70
2021/06/08 08:49:01;;;;;;;6.53;3.10;;;;;;;20.49;47.28;101412.66;4414388;32;20107;-70
2021/06/08 08:51:29;;;;;;;11.30;3.95;;;;;;;20.70;46.48;101411.50;4413132;32;20111;-70
2021/06/08 08:53:58;;;;;;;8.88;3.28;;;;;;;20.78;46.55;101409.84;4401245;32;20101;-71
2021/06/08 08:56:25;;;;;;;5.68;3.12;;;;;;;21.00;46.74;101407.38;4403796;32;20108;-70
2021/06/08 08:58:52;;;;;;;8.98;3.55;;;;;;;21.30;45.59;101396.69;4403465;32;20078;-70
2021/06/08 09:01:19;;;;;;;6.87;3.28;;;;;;;21.56;44.72;101406.97;4398790;32;20074;-70
2021/06/08 09:03:46;;;;;;;10.07;2.72;;;;;;;21.82;43.82;101395.66;4402316;32;20030;-70
2021/06/08 09:06:13;;;;;;;6.90;2.85;;;;;;;21.97;43.54;101392.69;4400494;32;20104;-70
2021/06/08 09:08:40;;;;;;;6.15;2.80;;;;;;;22.31;42.71;101401.22;4399573;32;20096;-70
2021/06/08 09:11:07;;;;;;;7.00;2.85;;;;;;;22.31;42.86;101388.94;4402909;32;20116;-70
2021/06/08 09:13:34;;;;;;;8.75;3.55;;;;;;;22.55;42.00;101395.22;4402386;32;20157;-70
2021/06/08 09:15:59;;;;;;;8.48;2.97;;;;;;;22.80;41.07;101386.59;4404163;32;20824;-71
2021/06/08 09:18:25;;;;;;;8.68;2.80;;;;;;;23.01;40.22;101396.69;4403598;32;20081;-70
2021/06/08 09:20:52;;;;;;;8.45;3.22;;;;;;;23.15;39.83;101381.44;4398451;32;20459;-70
2021/06/08 09:23:23;;;;;;;5.62;2.33;;;;;;;23.56;39.22;101386.94;4402382;32;20054;-70
2021/06/08 09:25:51;;;;;;;9.70;2.62;;;;;;;23.78;38.47;101381.31;4403093;32;20089;-71
2021/06/08 09:36:18;;;;;;;5.10;2.10;;;;;;;25.07;34.72;101397.91;4432997;31;790659;-70
2021/06/08 09:41:30;;;;;;;6.95;2.47;;;;;;;25.37;33.99;101383.00;4407520;31;1366005;-70
2021/06/08 09:49:37;;;;;;;6.50;2.17;;;;;;;26.34;32.34;101388.19;4420461;32;839642;-72
2021/06/08 09:52:06;;;;;;;4.70;2.10;;;;;;;26.34;32.34;101388.19;4448114;32;20100;-74
2021/06/08 09:57:29;;;;;;;2.92;1.98;;;;;;;26.53;31.76;101374.69;4400265;32;1397648;-70
2021/06/08 09:59:59;;;;;;;6.47;2.50;;;;;;;26.53;31.76;101374.69;4430271;32;20435;-72
2021/06/08 10:08:07;;;;;;;4.82;2.15;;;;;;;26.96;31.77;101367.81;4430842;31;673733;-72
2021/06/08 10:10:39;;;;;;;6.10;2.17;;;;;;;26.96;31.77;101367.81;4434998;32;20116;-73
2021/06/08 10:15:58;;;;;;;5.30;2.10;;;;;;;27.39;30.43;101373.75;4423357;32;672884;-71
2021/06/08 10:18:25;;;;;;;5.57;2.00;;;;;;;27.39;30.43;101373.75;4433562;32;20473;-72
2021/06/08 10:23:31;;;;;;;4.12;2.20;;;;;;;28.08;29.06;101383.53;4415176;31;664122;-71
2021/06/08 10:26:00;;;;;;;6.03;2.60;;;;;;;28.08;29.06;101383.53;4423886;32;20140;-70
2021/06/08 10:28:27;;;;;;;6.22;2.45;;;;;;;27.42;29.95;101366.88;4422557;32;20078;-72
2021/06/08 10:30:54;;;;;;;3.83;2.20;;;;;;;27.28;30.52;101364.41;4421585;32;20073;-71
2021/06/08 10:33:23;;;;;;;5.25;2.80;;;;;;;27.06;30.86;101371.16;4424071;32;20080;-69
2021/06/08 10:35:50;;;;;;;3.53;1.92;;;;;;;26.67;31.20;101370.69;4422844;32;20080;-70
2021/06/08 10:38:17;;;;;;;6.62;2.47;;;;;;;26.79;30.66;101363.50;4422035;32;20099;-70
2021/06/08 10:40:44;;;;;;;4.20;2.28;;;;;;;26.97;30.65;101365.72;4421653;32;20446;-70
2021/06/08 10:43:22;;;;;;;7.28;2.25;;;;;;;27.03;30.30;101364.34;4418310;32;20097;-70
2021/06/08 10:45:51;;;;;;;5.78;2.75;;;;;;;27.31;30.00;101357.56;4422476;32;20041;-70
2021/06/08 10:48:22;;;;;;;5.50;2.47;;;;;;;27.68;29.38;101361.38;4419784;32;20099;-70
2021/06/08 10:50:50;;;;;;;3.40;1.73;;;;;;;27.96;28.93;101361.84;4419952;32;20076;-70
2021/06/08 10:53:37;;;;;;;6.60;2.70;;;;;;;28.24;28.18;101362.25;4423462;32;20196;-70
2021/06/08 10:59:11;;;;;;;6.28;2.60;;;;;;;28.97;27.85;101362.41;4428332;31;669166;-71
2021/06/08 11:12:24;;;;;;;4.62;2.12;;;;;;;30.08;24.50;101365.09;4432015;31;747989;-72
2021/06/08 11:14:59;;;;;;;4.75;2.28;;;;;;;30.08;24.50;101365.09;4458316;32;20045;-70
2021/06/08 11:17:30;;;;;;;4.78;2.20;;;;;;;29.99;24.20;101370.56;4457536;32;20362;-71
2021/06/08 11:22:54;;;;;;;7.85;2.22;;;;;;;31.25;23.82;101366.03;4421576;31;683338;-74
2021/06/08 11:28:15;;;;;;;4.40;2.50;;;;;;;31.41;24.37;101362.72;4423109;31;786012;-72
2021/06/08 11:30:45;;;;;;;7.12;2.58;;;;;;;31.41;24.37;101362.72;4445719;32;20354;-72
2021/06/08 11:36:36;;;;;;;4.12;2.53;;;;;;;29.99;23.99;101376.37;4429198;31;811605;-74
2021/06/08 11:42:03;;;;;;;4.12;2.30;;;;;;;29.54;24.15;101361.97;4432688;31;717021;-72
2021/06/08 11:44:29;;;;;;;4.57;2.30;;;;;;;29.54;24.15;101361.97;4445249;32;20607;-71
2021/06/08 11:47:00;;;;;;;5.35;2.15;;;;;;;29.53;23.85;101359.63;4445199;32;20049;-72
2021/06/08 11:49:28;;;;;;;6.95;2.00;;;;;;;30.28;23.12;101361.50;4445762;32;20059;-72
2021/06/08 11:54:41;;;;;;;3.75;2.37;;;;;;;30.73;21.67;101361.25;4426842;31;675182;-74
2021/06/08 11:57:12;;;;;;;5.50;2.47;;;;;;;30.73;21.67;101361.25;4446557;32;20137;-73
2021/06/08 12:02:45;;;;;;;8.80;2.95;;;;;;;31.08;22.33;101337.41;4410589;31;704719;-73
2021/06/08 12:07:58;;;;;;;4.37;1.90;;;;;;;31.52;21.19;101347.06;4426486;31;676230;-71
2021/06/08 12:13:04;;;;;;;6.18;2.80;;;;;;;31.71;21.39;101341.75;4426285;31;746146;-72
2021/06/08 12:15:34;;;;;;;6.10;2.70;;;;;;;31.71;21.39;101341.75;4440692;32;20094;-72
2021/06/08 12:20:44;;;;;;;5.95;3.20;;;;;;;31.93;22.07;101327.38;4427983;31;674432;-73
2021/06/08 12:23:10;;;;;;;7.45;2.58;;;;;;;31.93;22.07;101327.38;4439397;32;20103;-73
2021/06/08 12:25:36;;;;;;;4.82;2.35;;;;;;;31.41;22.70;101329.94;4438675;32;20080;-74
2021/06/08 12:28:10;;;;;;;7.05;3.45;;;;;;;30.97;23.02;101340.59;4432391;32;20135;-71
2021/06/08 12:30:36;;;;;;;6.35;2.60;;;;;;;30.36;23.60;101338.37;4429185;32;20111;-71
2021/06/08 12:33:04;;;;;;;6.03;3.40;;;;;;;30.50;23.63;101331.94;4434572;32;20084;-72
2021/06/08 12:35:38;;;;;;;7.97;2.50;;;;;;;29.96;24.40;101336.88;4428723;32;20055;-69
2021/06/08 12:38:16;;;;;;;4.28;2.22;;;;;;;30.37;23.35;101334.91;4429278;32;20093;-70
2021/06/08 12:40:55;;;;;;;4.95;2.60;;;;;;;30.33;23.74;101317.06;4436844;32;20714;-71
2021/06/08 12:43:21;;;;;;;9.50;3.28;;;;;;;30.15;24.15;101338.28;4439870;32;20718;-71
2021/06/08 12:45:55;;;;;;;5.12;2.40;;;;;;;30.14;24.12;101325.13;4440501;32;21695;-72
2021/06/08 12:48:21;;;;;;;8.43;2.90;;;;;;;30.45;23.30;101329.97;4435958;32;20049;-71
2021/06/08 12:50:47;;;;;;;7.90;2.92;;;;;;;30.28;23.85;101320.09;4436198;32;20129;-70